Time;durP1;ratioP1;P1;durP2;ratioP2;P2;SDS_P1;SDS_P2;PMS_P1;PMS_P2;Temp;Humidity;BMP_temperature;BMP_pressure;BME280_temperature;BME280_humidity;BME280_pressure;Samples;Min_cycle;Max_cycle;Signal;HPM_P1;HPM_P2
2022/01/23 00:00:34;;;;;;;12.50;6.80;;;;;;;-2.48;100.00;-23744.69;5081601;28;20258;-71
2022/01/23 00:02:39;;;;;;;12.07;6.63;;;;;;;-2.66;100.00;-23739.66;5066460;28;20194;-72
2022/01/23 00:05:07;;;;;;;11.13;6.90;;;;;;;-2.40;100.00;-23746.97;5071537;28;20252;-73
2022/01/23 00:07:34;;;;;;;10.93;7.20;;;;;;;-2.41;100.00;-23746.69;5076940;28;20208;-72
2022/01/23 00:10:01;;;;;;;11.80;6.87;;;;;;;-2.77;100.00;-23736.63;5072195;28;20244;-73
2022/01/23 00:12:30;;;;;;;15.60;7.07;;;;;;;-2.72;100.00;-23737.94;5082060;28;20426;-73
2022/01/23 00:17:41;;;;;;;11.67;6.90;;;;;;;-2.86;100.00;-23734.03;5075717;28;20663;-72
2022/01/23 00:20:09;;;;;;;11.47;7.00;;;;;;;-2.81;100.00;-23735.47;5078338;28;20321;-71
2022/01/23 00:22:45;;;;;;;11.27;7.07;;;;;;;-2.42;100.00;-23746.41;5080648;28;20640;-72
2022/01/23 00:30:42;;;;;;;11.30;6.80;;;;;;;-2.52;100.00;-23743.53;5082895;28;20197;-72
2022/01/23 00:33:08;;;;;;;11.67;7.03;;;;;;;-3.14;100.00;-23726.00;5062522;28;20201;-72
2022/01/23 00:35:36;;;;;;;11.93;7.00;;;;;;;-2.75;100.00;-23737.06;5077192;28;20240;-72
2022/01/23 00:38:04;;;;;;;10.43;6.80;;;;;;;-2.77;100.00;-23736.63;5079284;28;20234;-72
2022/01/23 00:40:31;;;;;;;13.87;7.30;;;;;;;-2.70;100.00;-23738.66;5063217;28;20569;-72
2022/01/23 00:42:58;;;;;;;12.27;6.67;;;;;;;-2.76;100.00;-23736.78;5076152;28;20216;-71
2022/01/23 00:47:55;;;;;;;10.40;6.40;;;;;;;-2.70;100.00;-23738.50;5078680;28;20270;-72
2022/01/23 00:50:21;;;;;;;9.83;6.40;;;;;;;-2.51;100.00;-23743.97;5076613;28;20196;-72
2022/01/23 00:52:46;;;;;;;11.13;6.27;;;;;;;-2.40;100.00;-23746.97;5078296;28;20640;-71
2022/01/23 00:55:12;;;;;;;16.43;7.30;;;;;;;-2.79;100.00;-23736.06;5074016;28;20213;-71
2022/01/23 00:57:37;;;;;;;11.20;6.83;;;;;;;-2.91;100.00;-23732.47;5080411;28;20327;-72
2022/01/23 01:00:07;;;;;;;14.43;7.30;;;;;;;-2.74;100.00;-23737.50;5080463;28;20644;-72
2022/01/23 01:02:33;;;;;;;9.83;6.47;;;;;;;-2.36;100.00;-23748.13;5076057;28;20306;-71
2022/01/23 01:04:59;;;;;;;11.67;6.53;;;;;;;-2.49;100.00;-23744.38;5076573;28;20776;-71
2022/01/23 01:07:24;;;;;;;10.33;5.60;;;;;;;-2.66;100.00;-23739.66;5080881;28;20692;-71
2022/01/23 01:09:52;;;;;;;9.93;5.90;;;;;;;-2.58;100.00;-23741.94;5063892;28;20178;-72
2022/01/23 01:12:27;;;;;;;9.43;6.60;;;;;;;-3.01;100.00;-23729.59;5078638;28;20604;-72
2022/01/23 01:31:13;;;;;;;12.23;7.43;;;;;;;-3.08;100.00;-23727.72;5071152;28;20189;-73
2022/01/23 01:38:47;;;;;;;16.20;9.07;;;;;;;-3.19;100.00;-23724.56;5077262;28;20188;-72
2022/01/23 01:41:15;;;;;;;14.17;8.03;;;;;;;-3.06;100.00;-23728.31;5077183;28;20182;-73
2022/01/23 01:43:40;;;;;;;13.17;8.17;;;;;;;-2.95;100.00;-23731.47;5076347;28;20174;-72
2022/01/23 01:46:07;;;;;;;13.87;8.70;;;;;;;-3.44;100.00;-23717.50;5071197;28;20283;-71
2022/01/23 01:48:33;;;;;;;12.67;7.83;;;;;;;-3.59;100.00;-23713.19;5089587;28;20609;-72
2022/01/23 01:51:00;;;;;;;13.67;7.80;;;;;;;-3.41;100.00;-23718.38;5078991;28;20276;-72
2022/01/23 01:53:26;;;;;;;14.17;7.27;;;;;;;-3.36;100.00;-23719.66;5076751;28;20188;-72
2022/01/23 01:55:55;;;;;;;12.30;7.40;;;;;;;-2.90;100.00;-23732.91;5080033;28;20189;-71
2022/01/23 01:58:44;;;;;;;11.63;6.70;;;;;;;-3.32;100.00;-23720.81;5077195;28;20532;-72
2022/01/23 02:09:19;;;;;;;11.60;6.80;;;;;;;-2.81;100.00;-23735.47;5078572;28;20250;-72
2022/01/23 02:55:40;;;;;;;13.60;7.70;;;;;;;-3.03;100.00;-23729.16;5080151;28;20698;-73
2022/01/23 02:58:08;;;;;;;12.33;7.67;;;;;;;-2.74;100.00;-23737.34;5078504;28;20183;-72
2022/01/23 03:00:46;;;;;;;11.27;7.20;;;;;;;-2.91;100.00;-23732.47;5084790;28;20181;-73
2022/01/23 03:03:15;;;;;;;13.27;7.53;;;;;;;-2.79;100.00;-23735.91;5079089;28;20173;-73
2022/01/23 03:05:41;;;;;;;12.03;6.70;;;;;;;-3.23;100.00;-23723.56;5086636;28;20214;-73
2022/01/23 03:08:42;;;;;;;9.33;6.00;;;;;;;-3.07;100.00;-23728.00;5080214;28;20205;-72
2022/01/23 03:11:23;;;;;;;9.77;6.03;;;;;;;-3.20;100.00;-23724.41;5087890;28;20216;-73
2022/01/23 03:13:56;;;;;;;10.50;6.30;;;;;;;-2.86;100.00;-23734.03;5085779;28;20616;-73
2022/01/23 03:24:08;;;;;;;10.67;5.90;;;;;;;-2.75;100.00;-23737.22;5073458;28;20272;-72
2022/01/23 03:24:37;;;;;;;9.17;5.73;;;;;;;-2.94;100.00;-23731.59;5077756;28;20634;-72
2022/01/23 03:29:50;;;;;;;10.57;5.80;;;;;;;-3.11;100.00;-23726.84;5078107;28;20169;-73
2022/01/23 03:32:49;;;;;;;9.33;5.77;;;;;;;-3.12;100.00;-23726.56;5093276;28;20190;-73
2022/01/23 03:35:06;;;;;;;9.23;5.80;;;;;;;-2.70;100.00;-23738.50;5071353;28;20203;-74
2022/01/23 03:37:32;;;;;;;10.03;6.27;;;;;;;-2.83;100.00;-23734.78;5078036;28;20180;-73
2022/01/23 03:39:57;;;;;;;10.30;6.67;;;;;;;-3.21;100.00;-23723.97;5074619;28;20546;-73
2022/01/23 03:42:24;;;;;;;12.07;6.20;;;;;;;-2.81;100.00;-23735.34;5079482;28;20186;-72
2022/01/23 03:45:12;;;;;;;10.30;6.10;;;;;;;-2.68;100.00;-23739.22;5081064;28;20635;-72
2022/01/23 03:47:52;;;;;;;10.17;6.17;;;;;;;-2.88;100.00;-23733.31;5072433;28;20251;-73
2022/01/23 03:50:17;;;;;;;10.27;6.17;;;;;;;-2.70;100.00;-23738.50;5075369;28;20568;-72
2022/01/23 03:52:43;;;;;;;8.77;5.77;;;;;;;-2.94;100.00;-23731.75;5080757;28;20181;-72
2022/01/23 03:55:09;;;;;;;11.87;6.17;;;;;;;-2.47;100.00;-23744.97;5079291;28;20206;-73
2022/01/23 03:57:34;;;;;;;12.37;6.50;;;;;;;-2.94;100.00;-23731.59;5080519;28;20719;-73
2022/01/23 04:00:00;;;;;;;10.70;6.17;;;;;;;-2.69;100.00;-23738.78;5076669;28;20181;-73
2022/01/23 04:02:25;;;;;;;11.43;5.70;;;;;;;-2.57;100.00;-23742.25;5074856;28;20266;-72
2022/01/23 04:04:51;;;;;;;8.50;5.83;;;;;;;-2.69;100.00;-23738.94;5076504;28;20222;-73
2022/01/23 04:07:26;;;;;;;8.80;5.53;;;;;;;-2.58;100.00;-23741.94;5082073;28;20265;-71
2022/01/23 04:09:52;;;;;;;8.60;5.13;;;;;;;-3.12;100.00;-23726.72;5077090;28;20588;-72
2022/01/23 04:33:48;;;;;;;9.33;5.20;;;;;;;-2.53;100.00;-23743.25;5079634;28;20610;-72
2022/01/23 05:01:01;;;;;;;10.30;5.70;;;;;;;-2.84;100.00;-23734.63;5071526;28;20189;-72
2022/01/23 05:06:11;;;;;;;9.30;5.80;;;;;;;-2.78;100.00;-23736.34;5085472;28;20624;-72
2022/01/23 05:08:38;;;;;;;9.80;5.80;;;;;;;-2.40;100.00;-23746.97;5079680;28;20224;-71
2022/01/23 05:11:08;;;;;;;10.57;5.20;;;;;;;-2.31;100.00;-23749.56;5073771;28;20654;-72
2022/01/23 05:13:34;;;;;;;9.53;5.30;;;;;;;-2.40;100.00;-23747.13;5073521;28;20165;-72
2022/01/23 05:15:59;;;;;;;10.37;5.40;;;;;;;-2.67;100.00;-23739.38;5086182;28;20249;-72
2022/01/23 05:18:25;;;;;;;9.97;5.47;;;;;;;-2.42;100.00;-23746.41;5075404;28;20230;-72
2022/01/23 05:21:01;;;;;;;9.80;5.80;;;;;;;-2.38;100.00;-23747.69;5072318;28;20174;-73
2022/01/23 05:23:27;;;;;;;9.40;6.10;;;;;;;-2.74;100.00;-23737.50;5085547;28;20243;-73
2022/01/23 05:25:52;;;;;;;11.17;6.37;;;;;;;-2.80;100.00;-23735.63;5085019;28;20181;-72
2022/01/23 05:28:18;;;;;;;9.93;5.93;;;;;;;-2.41;100.00;-23746.69;5078020;28;20287;-73
2022/01/23 05:30:43;;;;;;;10.40;5.97;;;;;;;-2.63;100.00;-23740.50;5075101;28;20270;-73
2022/01/23 05:33:09;;;;;;;10.97;5.90;;;;;;;-2.49;100.00;-23744.38;5059773;28;20254;-72
2022/01/23 05:35:35;;;;;;;11.23;6.30;;;;;;;-2.73;100.00;-23737.66;5076223;28;20227;-72
2022/01/23 05:38:00;;;;;;;10.80;5.93;;;;;;;-2.52;100.00;-23743.69;5076594;28;20321;-73
2022/01/23 05:40:28;;;;;;;9.67;5.93;;;;;;;-2.60;100.00;-23741.38;5076736;28;20639;-72
2022/01/23 05:42:53;;;;;;;9.50;6.00;;;;;;;-2.79;100.00;-23735.91;5091236;28;20242;-73
2022/01/23 05:45:19;;;;;;;12.77;6.07;;;;;;;-2.37;100.00;-23747.84;5080855;28;20268;-72
2022/01/23 05:47:44;;;;;;;11.70;6.53;;;;;;;-2.24;100.00;-23751.72;5071698;28;20209;-72
2022/01/23 05:50:10;;;;;;;10.47;5.93;;;;;;;-2.22;100.00;-23752.00;5075959;28;20590;-72
2022/01/23 05:52:36;;;;;;;11.03;6.40;;;;;;;-2.56;100.00;-23742.38;5077416;28;20181;-71
2022/01/23 05:55:02;;;;;;;14.87;7.37;;;;;;;-2.43;100.00;-23746.13;5075293;28;20182;-72
2022/01/23 05:57:28;;;;;;;11.90;6.67;;;;;;;-2.36;100.00;-23748.28;5073830;28;20271;-72
2022/01/23 05:59:53;;;;;;;10.10;6.57;;;;;;;-1.80;100.00;-23764.06;5072775;28;20205;-72
2022/01/23 06:02:19;;;;;;;11.27;6.70;;;;;;;-2.25;100.00;-23751.44;5073582;28;20203;-72
2022/01/23 06:04:44;;;;;;;10.97;6.27;;;;;;;-1.59;100.00;-23769.94;5073457;28;20556;-73
2022/01/23 06:07:09;;;;;;;10.97;6.60;;;;;;;-2.03;100.00;-23757.59;5072830;28;20202;-73
2022/01/23 06:09:40;;;;;;;9.30;6.20;;;;;;;-1.74;100.00;-23765.66;5073171;28;20558;-73
2022/01/23 06:12:07;;;;;;;10.03;6.30;;;;;;;-1.38;100.00;-23775.97;5072801;28;20203;-73
2022/01/23 06:14:32;;;;;;;9.77;6.27;;;;;;;-1.88;100.00;-23761.78;5073258;28;20189;-73
2022/01/23 06:16:58;;;;;;;10.97;6.10;;;;;;;-1.68;100.00;-23767.38;5072464;28;20178;-73
2022/01/23 06:19:23;;;;;;;9.90;5.87;;;;;;;-1.13;100.00;-23783.16;5073369;28;20286;-72
2022/01/23 06:21:49;;;;;;;9.70;6.30;;;;;;;-1.58;100.00;-23770.25;5072487;28;20186;-73
2022/01/23 06:24:29;;;;;;;10.53;5.47;;;;;;;-1.17;100.00;-23782.00;5071846;28;20180;-73
2022/01/23 06:27:01;;;;;;;11.77;5.80;;;;;;;-1.23;100.00;-23780.28;5072267;28;20211;-73
2022/01/23 06:29:30;;;;;;;10.47;6.57;;;;;;;-1.44;100.00;-23774.25;5073538;28;20240;-72
2022/01/23 06:32:02;;;;;;;10.50;5.27;;;;;;;-1.39;100.00;-23775.84;5072360;28;20517;-74
2022/01/23 06:34:29;;;;;;;8.77;5.63;;;;;;;-1.88;100.00;-23761.91;5071774;28;20179;-72
2022/01/23 06:36:54;;;;;;;8.90;5.47;;;;;;;-1.69;100.00;-23767.06;5071340;28;21194;-72
2022/01/23 06:39:21;;;;;;;8.83;5.30;;;;;;;-1.46;100.00;-23773.81;5071196;28;20266;-76
2022/01/23 06:41:47;;;;;;;10.30;5.10;;;;;;;-1.32;100.00;-23777.69;5072453;28;20646;-73
2022/01/23 06:44:13;;;;;;;10.30;5.40;;;;;;;-1.59;100.00;-23769.94;5075335;28;20245;-76
2022/01/23 06:46:42;;;;;;;11.50;5.33;;;;;;;-1.16;100.00;-23782.28;5074815;28;20223;-78
2022/01/23 06:49:09;;;;;;;8.93;5.23;;;;;;;-2.34;100.00;-23748.69;5057495;28;20186;-74
2022/01/23 06:51:35;;;;;;;9.93;5.87;;;;;;;-1.21;100.00;-23780.84;5076751;28;21886;-72
2022/01/23 06:54:01;;;;;;;9.00;5.60;;;;;;;-1.56;100.00;-23770.94;5074185;28;20230;-74
2022/01/23 06:56:26;;;;;;;10.70;5.97;;;;;;;-1.36;100.00;-23776.69;5065219;28;20698;-76
2022/01/23 06:58:52;;;;;;;9.70;5.80;;;;;;;-1.71;100.00;-23766.50;5075978;28;20309;-75
2022/01/23 07:01:17;;;;;;;12.23;6.87;;;;;;;-1.15;100.00;-23782.44;5056791;28;20227;-74
2022/01/23 07:03:43;;;;;;;11.53;6.67;;;;;;;-1.57;100.00;-23770.53;5073773;28;20218;-76
2022/01/23 07:06:09;;;;;;;10.40;5.83;;;;;;;-1.32;100.00;-23777.69;5053965;28;20673;-72
2022/01/23 07:08:34;;;;;;;11.83;7.10;;;;;;;-1.18;100.00;-23781.56;5075913;28;20944;-73
2022/01/23 07:11:00;;;;;;;8.13;5.57;;;;;;;-1.16;100.00;-23782.28;5074912;28;20649;-75
2022/01/23 07:13:26;;;;;;;10.40;6.20;;;;;;;-1.58;100.00;-23770.38;5057136;28;20201;-73
2022/01/23 07:15:52;;;;;;;10.53;6.13;;;;;;;-1.41;100.00;-23775.13;5075902;28;20179;-73
2022/01/23 07:18:21;;;;;;;10.27;6.57;;;;;;;-1.27;100.00;-23779.00;5074603;28;20224;-74
2022/01/23 07:20:47;;;;;;;11.47;6.80;;;;;;;-1.52;100.00;-23772.09;5081177;28;20257;-72
2022/01/23 07:23:13;;;;;;;8.97;6.00;;;;;;;-1.37;100.00;-23776.25;5061628;28;20752;-75
2022/01/23 07:25:41;;;;;;;12.20;6.20;;;;;;;-1.16;100.00;-23782.28;5081494;28;20186;-75
2022/01/23 07:28:12;;;;;;;7.97;5.50;;;;;;;-1.07;100.00;-23784.88;5062680;28;20224;-74
2022/01/23 07:30:49;;;;;;;8.10;5.70;;;;;;;-1.22;100.00;-23780.44;5063232;28;20255;-75
2022/01/23 07:33:14;;;;;;;9.30;5.80;;;;;;;-1.36;100.00;-23776.56;5082343;28;20636;-74
2022/01/23 07:35:40;;;;;;;10.47;5.20;;;;;;;-1.02;100.00;-23786.16;5083480;28;20190;-73
2022/01/23 07:38:06;;;;;;;10.70;6.17;;;;;;;-0.94;100.00;-23788.59;5084798;28;20177;-73
2022/01/23 07:40:31;;;;;;;10.43;6.17;;;;;;;-0.84;100.00;-23791.19;5060806;28;20190;-76
2022/01/23 07:42:56;;;;;;;11.43;6.10;;;;;;;-1.18;100.00;-23781.56;5071379;28;20185;-72
2022/01/23 07:45:22;;;;;;;11.43;6.07;;;;;;;-0.84;100.00;-23791.19;5065564;28;20193;-74
2022/01/23 07:47:47;;;;;;;17.20;6.50;;;;;;;-0.68;100.00;-23795.91;5086555;28;20686;-73
2022/01/23 07:50:13;;;;;;;10.60;6.40;;;;;;;-0.78;100.00;-23792.91;5084292;28;20645;-72
2022/01/23 07:52:39;;;;;;;11.53;5.83;;;;;;;-0.40;100.00;-23803.78;5060434;28;20577;-73
2022/01/23 07:55:09;;;;;;;12.13;6.20;;;;;;;-0.58;100.00;-23798.63;5064043;28;20647;-73
2022/01/23 07:57:35;;;;;;;10.53;6.20;;;;;;;-0.47;100.00;-23801.94;5076376;28;21543;-72
2022/01/23 08:00:01;;;;;;;10.97;6.40;;;;;;;-0.14;100.00;-23811.09;5062903;28;20186;-73
2022/01/23 08:02:26;;;;;;;12.40;5.97;;;;;;;-0.46;100.00;-23802.22;5060254;28;20207;-73
2022/01/23 08:04:52;;;;;;;11.13;5.53;;;;;;;-0.25;100.00;-23807.94;5059342;28;20231;-73
2022/01/23 08:09:52;;;;;;;9.73;5.90;;;;;;;0.06;100.00;-23816.69;5061162;28;20689;-73
2022/01/23 08:12:18;;;;;;;12.93;6.73;;;;;;;0.16;100.00;-23819.69;5059681;28;20179;-72
2022/01/23 08:14:43;;;;;;;10.50;6.73;;;;;;;0.21;100.00;-23821.13;5058349;28;20303;-72
2022/01/23 08:17:09;;;;;;;11.97;7.33;;;;;;;-0.08;100.00;-23812.97;5060105;28;20189;-73
2022/01/23 08:19:34;;;;;;;14.90;8.07;;;;;;;0.03;100.00;-23815.81;5056209;28;20195;-76
2022/01/23 08:22:00;;;;;;;14.73;6.80;;;;;;;-0.26;100.00;-23807.66;5059174;28;20257;-74
2022/01/23 08:24:25;;;;;;;11.43;6.93;;;;;;;-0.21;100.00;-23809.22;5061055;28;20190;-72
2022/01/23 08:26:51;;;;;;;14.30;7.60;;;;;;;-0.08;100.00;-23812.97;5058060;28;20277;-73
2022/01/23 08:29:16;;;;;;;13.20;8.20;;;;;;;0.28;100.00;-23822.97;5057540;28;20185;-75
2022/01/23 08:31:45;;;;;;;14.67;8.50;;;;;;;0.08;100.00;-23817.25;5059198;28;20180;-72
2022/01/23 08:34:11;;;;;;;14.73;7.67;;;;;;;0.46;100.00;-23828.00;5061660;28;20183;-72
2022/01/23 08:36:37;;;;;;;14.90;7.83;;;;;;;0.51;100.00;-23829.56;5054932;28;20197;-73
2022/01/23 08:39:03;;;;;;;16.97;8.90;;;;;;;0.61;100.00;-23832.44;5062348;28;20199;-72
2022/01/23 08:44:13;;;;;;;11.47;6.20;;;;;;;1.35;100.00;-23853.31;5061553;28;20243;-73
2022/01/23 08:46:39;;;;;;;15.30;7.40;;;;;;;1.38;100.00;-23854.03;5059383;28;20190;-74
2022/01/23 08:49:04;;;;;;;17.37;8.80;;;;;;;1.07;100.00;-23845.44;5063963;28;20642;-72
2022/01/23 08:51:30;;;;;;;17.43;6.80;;;;;;;0.99;100.00;-23843.16;5056565;28;20672;-73
2022/01/23 08:53:55;;;;;;;10.00;5.17;;;;;;;1.23;100.00;-23850.03;5061451;28;20179;-73
2022/01/23 08:56:20;;;;;;;9.17;5.20;;;;;;;0.75;100.00;-23836.44;5060544;28;20216;-72
2022/01/23 08:58:46;;;;;;;12.60;5.33;;;;;;;1.16;100.00;-23848.03;5057942;28;20600;-73
2022/01/23 09:01:11;;;;;;;11.87;7.67;;;;;;;1.43;100.00;-23855.59;5061838;28;20622;-73
2022/01/23 09:03:37;;;;;;;14.27;8.80;;;;;;;1.47;100.00;-23856.75;5059473;28;20642;-73
2022/01/23 09:06:05;;;;;;;12.10;6.13;;;;;;;1.29;83.76;-23851.59;5059495;28;20214;-73
2022/01/23 09:08:34;;;;;;;15.50;7.10;;;;;;;0.97;83.60;-23842.44;5054401;28;20208;-72
2022/01/23 09:11:07;;;;;;;13.77;6.40;;;;;;;1.36;82.46;-23853.59;5058085;28;20641;-73
2022/01/23 09:16:09;;;;;;;9.20;5.60;;;;;;;1.34;82.64;-23853.03;5053707;28;20278;-74
2022/01/23 09:18:35;;;;;;;9.07;5.63;;;;;;;1.48;83.18;-23856.88;5061563;28;20634;-72
2022/01/23 09:21:01;;;;;;;7.47;5.10;;;;;;;1.07;82.64;-23845.31;5060158;28;20218;-72
2022/01/23 09:23:27;;;;;;;9.70;5.93;;;;;;;1.15;84.62;-23847.59;5061622;28;20178;-72
2022/01/23 09:25:53;;;;;;;12.20;5.73;;;;;;;1.32;84.80;-23852.44;5055555;28;20371;-73
2022/01/23 09:28:19;;;;;;;17.40;5.23;;;;;;;1.36;82.64;-23853.44;5057131;28;20280;-73
2022/01/23 09:30:49;;;;;;;8.23;5.03;;;;;;;1.47;81.90;-23856.59;5051976;28;20190;-73
2022/01/23 09:33:16;;;;;;;7.70;4.63;;;;;;;0.92;81.04;-23841.00;5061517;28;20181;-73
2022/01/23 09:35:41;;;;;;;9.83;5.03;;;;;;;0.93;81.94;-23841.28;5061424;28;20205;-73
2022/01/23 09:38:06;;;;;;;8.00;4.73;;;;;;;1.48;81.04;-23856.88;5062521;28;20637;-72
2022/01/23 09:40:32;;;;;;;8.17;4.87;;;;;;;1.70;79.36;-23863.31;5056957;28;20197;-72
2022/01/23 09:43:12;;;;;;;13.20;5.63;;;;;;;1.18;79.71;-23848.44;5058198;28;20294;-72
2022/01/23 09:45:38;;;;;;;7.53;4.80;;;;;;;1.36;78.25;-23853.44;5059060;28;20180;-73
2022/01/23 09:48:05;;;;;;;7.97;4.90;;;;;;;0.91;77.49;-23840.88;5058890;28;20698;-73
2022/01/23 09:50:32;;;;;;;8.57;5.20;;;;;;;1.05;77.96;-23844.72;5058030;28;20183;-74
2022/01/23 09:52:58;;;;;;;9.70;4.73;;;;;;;1.54;78.01;-23858.75;5058877;28;20628;-74
2022/01/23 09:55:28;;;;;;;9.30;5.03;;;;;;;0.99;78.05;-23843.00;5061269;28;20282;-74
2022/01/23 09:57:55;;;;;;;8.17;5.13;;;;;;;1.37;78.52;-23853.88;5060021;28;20186;-74
2022/01/23 10:00:26;;;;;;;6.57;4.90;;;;;;;1.11;76.63;-23846.44;5059118;28;20279;-73
2022/01/23 10:02:53;;;;;;;9.13;5.00;;;;;;;1.72;76.26;-23863.75;5060226;28;20188;-73
2022/01/23 10:05:19;;;;;;;11.27;5.37;;;;;;;1.45;76.14;-23856.03;5063109;28;20231;-74
2022/01/23 10:07:45;;;;;;;8.57;4.73;;;;;;;1.50;77.16;-23857.59;5077855;28;20219;-74
2022/01/23 10:10:20;;;;;;;10.93;5.23;;;;;;;1.64;76.02;-23861.59;5055391;28;20187;-73
2022/01/23 10:12:50;;;;;;;8.60;5.10;;;;;;;1.73;75.93;-23864.03;5059596;28;20566;-73
2022/01/23 10:15:17;;;;;;;8.13;4.90;;;;;;;1.81;74.54;-23866.16;5080414;28;20184;-74
2022/01/23 10:17:42;;;;;;;6.73;4.70;;;;;;;1.98;74.04;-23871.19;5061111;28;20203;-73
2022/01/23 10:20:11;;;;;;;7.13;4.63;;;;;;;1.57;73.19;-23859.59;5077798;28;20191;-72
2022/01/23 10:22:37;;;;;;;7.03;4.17;;;;;;;2.03;72.42;-23872.47;5084855;28;20277;-75
2022/01/23 10:25:15;;;;;;;8.53;4.50;;;;;;;1.90;72.57;-23868.75;5055691;28;20193;-74
2022/01/23 10:28:05;;;;;;;7.63;5.00;;;;;;;1.89;71.79;-23868.59;5072487;28;20205;-77
2022/01/23 10:30:34;;;;;;;7.80;4.87;;;;;;;1.92;72.31;-23869.31;5060449;28;20197;-73
2022/01/23 10:33:10;;;;;;;8.60;5.23;;;;;;;2.77;71.55;-23893.31;5064803;28;20183;-73
2022/01/23 10:36:07;;;;;;;8.37;5.60;;;;;;;2.56;71.24;-23887.59;5078833;28;20268;-73
2022/01/23 10:38:59;;;;;;;8.50;5.27;;;;;;;2.05;71.18;-23873.16;5055331;28;20825;-73
2022/01/23 10:49:52;;;;;;;9.57;5.67;;;;;;;1.95;70.52;-23870.31;5081761;28;20198;-77
2022/01/23 10:52:43;;;;;;;11.40;6.20;;;;;;;2.16;71.37;-23876.31;5078085;28;20249;-77
2022/01/23 10:55:20;;;;;;;10.63;5.80;;;;;;;2.51;71.40;-23886.03;5077374;28;20176;-79
2022/01/23 10:57:48;;;;;;;11.10;6.40;;;;;;;2.08;71.67;-23873.88;5061988;28;20271;-78
2022/01/23 11:00:23;;;;;;;8.80;5.73;;;;;;;2.41;70.74;-23883.16;5058478;28;20241;-74
2022/01/23 11:02:49;;;;;;;8.83;5.90;;;;;;;2.14;71.49;-23875.75;5081642;28;20311;-74
2022/01/23 11:05:17;;;;;;;9.10;5.40;;;;;;;1.77;70.99;-23865.31;5074921;28;20323;-74
2022/01/23 11:07:45;;;;;;;9.47;5.60;;;;;;;1.96;70.95;-23870.47;5073239;28;20639;-75
2022/01/23 11:10:14;;;;;;;8.63;5.43;;;;;;;2.00;70.87;-23871.75;5055558;28;20655;-74
2022/01/23 11:18:02;;;;;;;10.63;5.37;;;;;;;1.62;68.28;-23861.03;5081216;28;20676;-73
2022/01/23 11:20:36;;;;;;;10.03;5.73;;;;;;;1.47;71.62;-23856.75;5082989;28;20674;-73
2022/01/23 11:23:03;;;;;;;9.33;5.77;;;;;;;2.00;72.88;-23871.59;5080268;28;20712;-74
2022/01/23 11:25:29;;;;;;;10.60;5.63;;;;;;;1.70;71.39;-23863.31;5085177;28;20182;-73
2022/01/23 11:28:03;;;;;;;9.83;5.90;;;;;;;1.41;72.20;-23855.03;5064114;28;20216;-73
2022/01/23 11:30:39;;;;;;;11.60;6.07;;;;;;;1.99;71.36;-23871.31;5075472;28;20724;-73
2022/01/23 11:33:09;;;;;;;10.13;6.03;;;;;;;1.79;71.99;-23865.75;5074359;28;20177;-75
2022/01/23 11:35:34;;;;;;;8.80;5.83;;;;;;;1.33;72.82;-23852.75;5056528;28;20189;-75
2022/01/23 11:38:01;;;;;;;13.53;6.17;;;;;;;1.38;72.51;-23854.16;5074510;28;20541;-74
2022/01/23 11:53:55;;;;;;;10.77;6.63;;;;;;;1.15;75.66;-23847.75;5079221;28;20702;-76
2022/01/23 11:56:35;;;;;;;10.83;6.17;;;;;;;1.33;74.39;-23852.88;5064323;28;20174;-74
2022/01/23 11:59:11;;;;;;;11.50;6.07;;;;;;;1.28;75.05;-23851.31;5061665;28;20193;-74
2022/01/23 12:01:41;;;;;;;11.47;6.13;;;;;;;1.44;75.31;-23855.88;5081958;28;20186;-73
2022/01/23 12:04:07;;;;;;;9.67;5.67;;;;;;;1.00;74.69;-23843.31;5078453;28;20539;-73
2022/01/23 12:06:37;;;;;;;12.97;6.10;;;;;;;1.23;75.39;-23849.88;5080535;28;20279;-75
2022/01/23 12:09:19;;;;;;;17.90;8.97;;;;;;;0.84;75.48;-23838.88;5063426;28;20209;-73
2022/01/23 12:12:20;;;;;;;47.40;20.60;;;;;;;1.21;76.41;-23849.31;5080594;28;20189;-73
2022/01/23 12:17:23;;;;;;;9.40;6.37;;;;;;;1.07;77.90;-23845.44;5079830;28;20220;-74
2022/01/23 12:19:58;;;;;;;10.13;6.23;;;;;;;1.06;76.66;-23845.16;5062220;28;20191;-74
2022/01/23 12:22:35;;;;;;;10.90;6.33;;;;;;;1.03;76.44;-23844.16;5082238;28;20181;-74
2022/01/23 12:25:23;;;;;;;11.10;6.57;;;;;;;0.85;77.78;-23839.16;5069753;28;20691;-75
2022/01/23 12:28:08;;;;;;;13.63;7.20;;;;;;;1.08;78.30;-23845.72;5066303;28;20203;-73
2022/01/23 12:30:34;;;;;;;12.60;6.60;;;;;;;1.13;77.97;-23847.16;5077846;28;20181;-73
2022/01/23 12:33:45;;;;;;;12.43;6.60;;;;;;;1.09;77.82;-23846.03;5078636;28;20185;-73
2022/01/23 12:36:13;;;;;;;10.10;6.50;;;;;;;1.11;78.00;-23846.44;4986657;28;20603;-73
2022/01/23 12:38:53;;;;;;;9.43;6.30;;;;;;;1.13;78.49;-23847.03;5069137;28;20197;-72
2022/01/23 12:41:28;;;;;;;10.57;6.30;;;;;;;1.25;77.52;-23850.59;5061747;28;20311;-73
2022/01/23 12:44:09;;;;;;;11.10;5.70;;;;;;;0.99;77.63;-23843.16;5080875;28;20234;-73
2022/01/23 12:46:48;;;;;;;11.03;6.10;;;;;;;0.77;76.85;-23837.00;5061734;28;20242;-72
2022/01/23 12:49:28;;;;;;;13.27;6.77;;;;;;;0.75;77.22;-23836.44;5080795;28;20177;-73
2022/01/23 12:52:06;;;;;;;10.17;6.30;;;;;;;1.29;77.45;-23851.59;5080799;28;20262;-73
2022/01/23 12:54:48;;;;;;;8.67;5.87;;;;;;;1.09;77.14;-23845.88;5063343;28;20185;-74
2022/01/23 12:57:25;;;;;;;11.53;5.93;;;;;;;1.01;77.65;-23843.72;5080105;28;20196;-73
2022/01/23 12:59:56;;;;;;;11.47;7.17;;;;;;;0.95;78.00;-23841.88;5082280;28;20202;-75
2022/01/23 13:02:25;;;;;;;16.30;8.93;;;;;;;1.32;79.40;-23852.44;5078926;28;20193;-72
2022/01/23 13:04:54;;;;;;;13.77;7.70;;;;;;;0.98;79.11;-23842.88;5082578;28;20237;-73
2022/01/23 13:07:50;;;;;;;19.87;9.60;;;;;;;0.89;78.45;-23840.28;5077272;28;20203;-74
2022/01/23 13:12:55;;;;;;;12.97;6.63;;;;;;;1.32;78.62;-23852.59;5078395;28;20209;-75
2022/01/23 13:32:23;;;;;;;11.83;7.00;;;;;;;1.09;80.53;-23846.03;5074214;28;20635;-73
2022/01/23 13:35:02;;;;;;;12.43;6.70;;;;;;;0.87;80.02;-23839.88;5068020;28;20640;-74
2022/01/23 13:37:31;;;;;;;10.90;6.40;;;;;;;0.95;80.89;-23841.88;5081400;28;20559;-75
2022/01/23 13:40:06;;;;;;;10.93;6.37;;;;;;;1.30;79.54;-23851.88;5064395;28;20284;-74
2022/01/23 13:42:58;;;;;;;10.70;6.60;;;;;;;1.17;80.30;-23848.16;5082347;28;20239;-74
2022/01/23 13:59:29;;;;;;;10.37;6.97;;;;;;;0.61;80.46;-23832.44;5081254;28;20199;-73
2022/01/23 14:02:14;;;;;;;15.23;7.70;;;;;;;0.98;80.44;-23842.88;5082273;28;20180;-73
2022/01/23 14:04:43;;;;;;;10.33;6.57;;;;;;;1.16;79.70;-23848.03;5071686;28;20222;-74
2022/01/23 14:07:09;;;;;;;12.27;6.93;;;;;;;0.77;79.81;-23836.88;5079909;28;20201;-73
2022/01/23 14:09:43;;;;;;;12.40;7.47;;;;;;;0.92;80.47;-23841.16;5082197;28;20186;-75
2022/01/23 14:12:19;;;;;;;14.17;7.47;;;;;;;0.75;82.52;-23836.28;5077274;28;20182;-72
2022/01/23 14:14:55;;;;;;;11.43;7.13;;;;;;;0.82;82.14;-23838.28;5082238;28;20177;-74
2022/01/23 14:17:23;;;;;;;11.13;6.70;;;;;;;0.52;81.35;-23829.72;5084486;28;20179;-73
2022/01/23 14:20:01;;;;;;;10.07;6.73;;;;;;;0.77;80.65;-23837.00;5086789;28;20181;-74
2022/01/23 14:22:28;;;;;;;9.60;5.90;;;;;;;1.00;78.93;-23843.31;5080555;28;20176;-74
2022/01/23 14:25:12;;;;;;;11.63;6.43;;;;;;;0.62;79.02;-23832.56;5082672;28;20177;-74
2022/01/23 14:27:39;;;;;;;12.80;6.93;;;;;;;0.46;79.61;-23828.13;5078443;28;20200;-73
2022/01/23 14:30:13;;;;;;;11.83;7.10;;;;;;;0.85;80.50;-23839.28;5093978;28;20621;-72
2022/01/23 14:33:06;;;;;;;14.13;7.00;;;;;;;0.89;80.53;-23840.28;5083226;28;20212;-74
2022/01/23 14:35:30;;;;;;;17.00;8.30;;;;;;;0.90;82.02;-23840.59;5084055;28;20197;-74
2022/01/23 14:38:11;;;;;;;14.60;8.97;;;;;;;0.46;82.59;-23828.13;5062895;28;20184;-73
2022/01/23 14:40:37;;;;;;;12.40;7.50;;;;;;;0.77;81.91;-23837.00;5093453;28;20188;-73
2022/01/23 14:43:10;;;;;;;13.90;7.33;;;;;;;0.82;82.29;-23838.28;5083113;28;20190;-73
2022/01/23 14:45:46;;;;;;;21.37;8.63;;;;;;;0.81;83.04;-23838.16;5080499;28;20186;-72
2022/01/23 14:48:13;;;;;;;11.83;7.13;;;;;;;0.69;84.09;-23834.72;5062618;28;20208;-72
2022/01/23 14:50:43;;;;;;;11.73;7.27;;;;;;;0.64;85.26;-23833.28;5082930;28;20626;-74
2022/01/23 14:53:12;;;;;;;9.80;6.23;;;;;;;0.87;84.08;-23839.88;5062065;28;20225;-73
2022/01/23 14:55:41;;;;;;;10.53;6.60;;;;;;;0.64;84.46;-23833.28;5061510;28;20189;-73
2022/01/23 14:58:10;;;;;;;11.07;5.97;;;;;;;0.45;84.29;-23827.84;5083949;28;20639;-74
2022/01/23 15:00:36;;;;;;;9.77;5.50;;;;;;;0.43;85.95;-23827.28;5078207;28;20188;-75
2022/01/23 15:03:04;;;;;;;7.87;5.47;;;;;;;0.14;85.98;-23819.13;5061692;28;20181;-73